Randalls Island, New York
Current Conditions -  °F | °C
As of 7:51 AM on Tuesday 21 Oct 2014 (Local Time) from KNYC Reporting Station
Clear Clear  
Wind Chill: 56°   Ceiling: Unl
Heat Index: 56°   Visibility: 10mi
Dew Point: 45°   Wind: 0mph
Humidity: 67%   Direction: NA
Pressure: 29.92"   Gusts: NA
Location:  40.8022°N, 73.9368°W
Report Text: KNYC 211151Z AUTO 00000KT 10SM CLR 13/07 A2992 RMK AO2 SLP122 T01330072 10150 20128 56002 $
Loading
Personal Weather Stations






























Interactive Weather Map
Tropical Storm Tracking
New forecast layout! Learn more

10-Day Weather Forecast

Advertisements
Track Severe Weather on mobile